createdAt,value
2022-11-16T00:00:05.945Z,86.4
2022-11-16T00:15:02.716Z,86.4
2022-11-16T00:30:03.150Z,87.1
2022-11-16T00:45:02.598Z,87.7
2022-11-16T01:00:03.088Z,88.4
2022-11-16T01:15:02.449Z,89.2
2022-11-16T01:30:03.091Z,89.7
2022-11-16T01:45:02.314Z,90.1
2022-11-16T02:00:02.780Z,90.4
2022-11-16T02:15:03.213Z,91.1
2022-11-16T02:30:02.619Z,92.0
2022-11-16T02:45:03.096Z,92.7
2022-11-16T03:00:02.504Z,93.2
2022-11-16T03:15:03.120Z,93.5
2022-11-16T03:30:02.381Z,94.1
2022-11-16T03:45:02.844Z,94.7
2022-11-16T04:00:02.265Z,95.1
2022-11-16T04:15:02.735Z,95.4
2022-11-16T04:30:03.158Z,95.6
2022-11-16T04:45:02.572Z,95.7
2022-11-16T05:00:03.145Z,95.7
2022-11-16T05:15:02.461Z,95.8
2022-11-16T05:30:03.140Z,95.9
2022-11-16T05:45:02.347Z,95.8
2022-11-16T06:00:02.776Z,95.8
2022-11-16T06:15:03.220Z,96.0
2022-11-16T06:30:02.660Z,96.1
2022-11-16T06:45:03.146Z,96.2
2022-11-16T07:00:02.513Z,96.2
2022-11-16T07:15:03.169Z,96.2
2022-11-16T07:30:02.420Z,96.2
2022-11-16T07:45:02.832Z,96.3
2022-11-16T08:00:03.245Z,96.3
2022-11-16T08:15:02.660Z,96.4
2022-11-16T08:30:03.183Z,96.5
2022-11-16T08:45:02.573Z,96.5
2022-11-16T09:00:03.190Z,96.5
2022-11-16T09:15:02.417Z,96.5
2022-11-16T09:30:02.863Z,96.4
2022-11-16T09:45:02.283Z,96.3
2022-11-16T10:00:02.711Z,96.3
2022-11-16T10:15:03.208Z,96.1
2022-11-16T10:30:02.597Z,95.9
2022-11-16T10:45:03.200Z,95.8
2022-11-16T11:00:02.460Z,95.8
2022-11-16T11:15:02.900Z,95.7
2022-11-16T11:30:02.333Z,95.8
2022-11-16T11:45:02.771Z,95.8
2022-11-16T12:00:03.215Z,95.7
2022-11-16T12:15:02.632Z,95.2
2022-11-16T12:30:03.226Z,94.7
2022-11-16T12:45:02.523Z,94.2
2022-11-16T13:00:02.973Z,93.7
2022-11-16T13:15:02.403Z,93.4
2022-11-16T13:30:02.854Z,93.6
2022-11-16T13:45:02.316Z,94.0
2022-11-16T14:00:02.714Z,94.2
2022-11-16T14:15:04.005Z,94.3
2022-11-16T14:30:02.604Z,94.4
2022-11-16T14:45:03.252Z,94.7
2022-11-16T15:00:02.485Z,94.7
2022-11-16T15:15:02.949Z,94.7
2022-11-16T15:30:02.376Z,94.7
2022-11-16T15:45:02.790Z,94.9
2022-11-16T16:00:03.280Z,95.1
2022-11-16T16:15:02.663Z,95.4
2022-11-16T16:30:03.385Z,95.7
2022-11-16T16:45:02.571Z,95.7
2022-11-16T17:00:03.021Z,96.1
2022-11-16T17:15:02.456Z,96.2
2022-11-16T17:30:02.902Z,96.4
2022-11-16T17:45:02.340Z,96.5
2022-11-16T18:00:02.770Z,97.0
2022-11-16T18:15:27.050Z,97.9
2022-11-16T18:30:02.639Z,98.4
2022-11-16T18:45:03.320Z,98.5
2022-11-16T19:00:02.530Z,98.8
2022-11-16T19:15:02.973Z,99.0
2022-11-16T19:30:02.412Z,99.1
2022-11-16T19:45:02.862Z,99.2
2022-11-16T20:00:02.340Z,99.3
2022-11-16T20:15:02.716Z,99.3
2022-11-16T20:30:09.105Z,99.5
2022-11-16T20:45:03.617Z,99.6
2022-11-16T21:00:03.053Z,99.7
2022-11-16T21:15:02.491Z,99.7
2022-11-16T21:30:03.025Z,99.8
2022-11-16T21:45:02.360Z,99.9
2022-11-16T22:00:02.793Z,99.7
2022-11-16T22:15:03.353Z,99.6
2022-11-16T22:30:02.686Z,99.9
2022-11-16T22:45:03.312Z,99.8
2022-11-16T23:00:02.548Z,99.9
2022-11-16T23:15:02.998Z,100.0
2022-11-16T23:30:04.523Z,100.0
2022-11-16T23:45:02.887Z,99.9
